createdAt,value
2022-12-22T00:00:41.026Z,0.80
2022-12-22T00:03:50.008Z,0.60
2022-12-22T00:06:40.290Z,0.77
2022-12-22T00:09:31.060Z,0.75
2022-12-22T00:12:24.511Z,0.95
2022-12-22T00:15:15.801Z,1.05
2022-12-22T00:18:08.336Z,1.10
2022-12-22T00:20:59.228Z,0.90
2022-12-22T00:23:50.039Z,0.70
2022-12-22T00:26:41.566Z,0.80
2022-12-22T00:29:34.548Z,0.90
2022-12-22T00:32:25.543Z,0.70
2022-12-22T00:35:17.970Z,1.02
2022-12-22T00:38:09.732Z,0.70
2022-12-22T00:41:00.691Z,0.80
2022-12-22T00:43:51.619Z,0.88
2022-12-22T00:46:45.543Z,0.80
2022-12-22T00:49:38.483Z,1.00
2022-12-22T00:52:32.321Z,0.77
2022-12-22T00:55:24.127Z,1.08
2022-12-22T00:58:14.460Z,0.77
2022-12-22T01:01:05.922Z,0.77
2022-12-22T01:03:56.792Z,1.10
2022-12-22T01:06:48.520Z,0.88
2022-12-22T01:09:41.374Z,1.10
2022-12-22T01:12:34.192Z,0.80
2022-12-22T01:15:25.724Z,1.08
2022-12-22T01:18:18.761Z,0.85
2022-12-22T01:21:09.176Z,1.02
2022-12-22T01:24:01.137Z,1.00
2022-12-22T01:26:54.346Z,1.00
2022-12-22T01:29:45.232Z,0.90
2022-12-22T01:32:36.415Z,1.02
2022-12-22T01:35:29.275Z,1.00
2022-12-22T01:38:20.270Z,1.23
2022-12-22T01:41:11.852Z,0.85
2022-12-22T01:44:04.284Z,0.93
2022-12-22T01:46:56.202Z,0.80
2022-12-22T01:49:49.891Z,0.90
2022-12-22T01:52:41.183Z,0.80
2022-12-22T01:55:33.635Z,0.85
2022-12-22T01:58:25.761Z,0.82
2022-12-22T02:01:18.667Z,0.93
2022-12-22T02:04:10.212Z,0.70
2022-12-22T02:07:03.232Z,1.05
2022-12-22T02:10:05.219Z,0.90
2022-12-22T02:13:02.903Z,1.00
2022-12-22T02:15:57.451Z,0.82
2022-12-22T02:18:55.419Z,0.98
2022-12-22T02:21:48.145Z,0.85
2022-12-22T02:24:44.947Z,0.90
2022-12-22T02:27:38.939Z,0.80
2022-12-22T02:30:30.978Z,1.00
2022-12-22T02:33:23.319Z,0.68
2022-12-22T02:36:19.544Z,0.80
2022-12-22T02:39:17.497Z,0.90
2022-12-22T02:42:12.015Z,1.05
2022-12-22T02:45:14.584Z,0.90
2022-12-22T02:48:08.677Z,0.77
2022-12-22T02:51:06.340Z,0.85
2022-12-22T02:53:59.452Z,1.13
2022-12-22T02:56:51.185Z,0.98
2022-12-22T02:59:42.101Z,0.80
2022-12-22T03:02:35.189Z,0.80
2022-12-22T03:05:25.878Z,0.90
2022-12-22T03:08:17.091Z,0.90
2022-12-22T03:11:10.089Z,0.90
2022-12-22T03:14:00.756Z,0.70
2022-12-22T03:16:51.417Z,1.05
2022-12-22T03:19:44.874Z,1.02
2022-12-22T03:22:35.774Z,0.98
2022-12-22T03:25:26.840Z,0.93
2022-12-22T03:28:06.857Z,0.88
2022-12-22T03:30:42.380Z,1.15
2022-12-22T03:33:17.029Z,0.70
2022-12-22T03:35:53.454Z,1.00
2022-12-22T03:38:28.117Z,1.02
2022-12-22T03:41:03.944Z,0.80
2022-12-22T03:43:55.387Z,0.93
2022-12-22T03:46:37.068Z,0.68
2022-12-22T03:49:14.773Z,0.90
2022-12-22T03:51:53.715Z,0.80
2022-12-22T03:54:31.697Z,0.98
2022-12-22T03:57:07.489Z,0.98
2022-12-22T03:59:42.293Z,1.05
2022-12-22T04:02:17.505Z,0.80
2022-12-22T04:04:52.331Z,0.82
2022-12-22T04:07:28.782Z,0.88
2022-12-22T04:10:19.787Z,0.90
2022-12-22T04:13:00.717Z,0.90
2022-12-22T04:15:40.067Z,0.95
2022-12-22T04:18:14.774Z,0.90
2022-12-22T04:20:49.553Z,0.70
2022-12-22T04:23:26.841Z,0.80
2022-12-22T04:26:01.804Z,0.80
2022-12-22T04:28:37.138Z,0.70
2022-12-22T04:31:11.885Z,0.80
2022-12-22T04:33:46.826Z,0.80
2022-12-22T04:36:21.798Z,1.00
2022-12-22T04:38:58.410Z,0.80
2022-12-22T04:41:33.280Z,0.68
2022-12-22T04:44:09.771Z,0.90
2022-12-22T04:46:44.494Z,0.77
2022-12-22T04:49:19.058Z,0.80
2022-12-22T04:51:54.945Z,1.00
2022-12-22T04:54:33.438Z,0.90
2022-12-22T04:57:09.362Z,0.82
2022-12-22T04:59:47.381Z,0.80
2022-12-22T05:02:23.355Z,0.75
2022-12-22T05:05:00.129Z,0.80
2022-12-22T05:07:35.748Z,0.93
2022-12-22T05:10:14.903Z,0.80
2022-12-22T05:12:58.852Z,0.85
2022-12-22T05:15:38.447Z,0.68
2022-12-22T05:18:14.855Z,0.82
2022-12-22T05:20:49.577Z,0.93
2022-12-22T05:23:24.382Z,0.70
2022-12-22T05:26:02.117Z,0.70
2022-12-22T05:28:37.899Z,0.80
2022-12-22T05:31:15.058Z,0.82
2022-12-22T05:33:50.925Z,0.90
2022-12-22T05:36:27.291Z,0.80
2022-12-22T05:39:03.877Z,0.95
2022-12-22T05:41:41.675Z,0.90
2022-12-22T05:44:16.517Z,0.98
2022-12-22T05:46:56.020Z,0.90
2022-12-22T05:49:31.135Z,0.80
2022-12-22T05:52:06.005Z,1.17
2022-12-22T05:54:40.814Z,0.95
2022-12-22T05:57:18.664Z,0.90
2022-12-22T05:59:53.459Z,1.00
2022-12-22T06:02:28.948Z,1.00
2022-12-22T06:05:03.794Z,1.05
2022-12-22T06:07:39.362Z,1.00
2022-12-22T06:10:14.881Z,1.08
2022-12-22T06:12:51.287Z,0.80
2022-12-22T06:15:26.030Z,1.00
2022-12-22T06:18:02.389Z,1.00
2022-12-22T06:20:39.455Z,1.10
2022-12-22T06:23:16.055Z,1.00
2022-12-22T06:25:59.178Z,0.70
2022-12-22T06:28:39.467Z,0.93
2022-12-22T06:31:14.586Z,0.90
2022-12-22T06:33:49.917Z,0.70
2022-12-22T06:36:24.926Z,1.08
2022-12-22T06:39:00.711Z,0.82
2022-12-22T06:41:51.562Z,1.10
2022-12-22T06:44:28.005Z,1.10
2022-12-22T06:47:05.188Z,1.30
2022-12-22T06:49:41.447Z,1.08
2022-12-22T06:52:16.662Z,0.88
2022-12-22T06:54:54.150Z,0.80
2022-12-22T06:57:31.915Z,1.00
2022-12-22T07:00:09.230Z,0.73
2022-12-22T07:02:44.445Z,0.85
2022-12-22T07:05:23.584Z,0.80
2022-12-22T07:08:07.655Z,0.93
2022-12-22T07:11:02.342Z,1.08
2022-12-22T07:13:38.303Z,0.90
2022-12-22T07:16:22.565Z,1.10
2022-12-22T07:18:57.847Z,1.20
2022-12-22T07:21:33.522Z,1.00
2022-12-22T07:24:13.990Z,1.00
2022-12-22T07:26:49.084Z,1.17
2022-12-22T07:29:24.387Z,1.15
2022-12-22T07:32:02.739Z,1.40
2022-12-22T07:34:38.722Z,1.00
2022-12-22T07:37:15.351Z,1.25
2022-12-22T07:39:50.066Z,1.00
2022-12-22T07:42:41.730Z,1.50
2022-12-22T07:45:17.123Z,1.17
2022-12-22T07:47:56.815Z,1.20
2022-12-22T07:50:30.816Z,1.20
2022-12-22T07:53:07.373Z,1.20
2022-12-22T07:55:42.508Z,1.30
2022-12-22T07:58:18.366Z,1.50
2022-12-22T08:00:53.229Z,1.52
2022-12-22T08:03:34.239Z,1.40
2022-12-22T08:06:10.147Z,1.10
2022-12-22T08:08:51.474Z,1.10
2022-12-22T08:11:26.165Z,1.30
2022-12-22T08:14:01.825Z,1.50
2022-12-22T08:16:37.101Z,1.13
2022-12-22T08:19:14.218Z,1.10
2022-12-22T08:21:53.118Z,1.20
2022-12-22T08:24:29.623Z,1.20
2022-12-22T08:27:10.102Z,1.48
2022-12-22T08:29:46.877Z,1.30
2022-12-22T08:32:21.622Z,1.30
2022-12-22T08:34:59.395Z,1.50
2022-12-22T08:37:42.670Z,1.42
2022-12-22T08:40:20.790Z,1.23
2022-12-22T08:43:00.773Z,1.35
2022-12-22T08:45:37.584Z,1.25
2022-12-22T08:48:14.559Z,1.20
2022-12-22T08:50:52.500Z,1.08
2022-12-22T08:56:25.131Z,1.50
2022-12-22T08:59:00.630Z,1.42
2022-12-22T09:01:36.258Z,1.40
2022-12-22T09:04:12.775Z,1.60
2022-12-22T09:06:51.325Z,1.35
2022-12-22T09:09:27.467Z,1.20
2022-12-22T09:12:09.824Z,1.40
2022-12-22T09:15:09.145Z,1.50
2022-12-22T09:17:50.740Z,1.15
2022-12-22T09:20:27.386Z,1.27
2022-12-22T09:23:17.012Z,1.25
2022-12-22T09:26:01.615Z,1.33
2022-12-22T09:28:50.563Z,1.00
2022-12-22T09:31:39.820Z,1.33
2022-12-22T09:34:18.436Z,1.30
2022-12-22T09:37:05.751Z,1.42
2022-12-22T09:39:55.816Z,0.95
2022-12-22T09:42:43.423Z,1.17
2022-12-22T09:45:24.203Z,1.17
2022-12-22T09:48:05.663Z,1.13
2022-12-22T09:50:47.859Z,1.20
2022-12-22T09:53:27.475Z,1.48
2022-12-22T09:56:35.806Z,1.92
2022-12-22T09:59:27.661Z,1.30
2022-12-22T10:02:25.976Z,1.50
2022-12-22T10:05:30.771Z,1.30
2022-12-22T10:08:20.667Z,1.25
2022-12-22T10:11:08.191Z,1.00
2022-12-22T10:13:46.868Z,1.20
2022-12-22T10:16:28.051Z,1.60
2022-12-22T10:19:15.349Z,1.00
2022-12-22T10:22:00.745Z,1.10
2022-12-22T10:24:45.057Z,1.48
2022-12-22T10:27:46.751Z,1.20
2022-12-22T10:30:31.666Z,1.27
2022-12-22T10:33:13.309Z,1.20
2022-12-22T10:35:52.067Z,1.48
2022-12-22T10:38:30.041Z,1.58
2022-12-22T10:41:08.087Z,1.20
2022-12-22T10:43:51.484Z,1.30
2022-12-22T10:46:37.576Z,1.00
2022-12-22T10:49:19.507Z,1.30
2022-12-22T10:51:59.133Z,1.10
2022-12-22T10:54:39.849Z,1.10
2022-12-22T10:57:35.527Z,1.23
2022-12-22T11:00:29.746Z,1.33
2022-12-22T11:03:07.080Z,1.00
2022-12-22T11:05:43.322Z,1.52
2022-12-22T11:08:22.720Z,1.17
2022-12-22T11:11:00.951Z,1.42
2022-12-22T11:13:55.961Z,1.17
2022-12-22T11:16:38.835Z,1.40
2022-12-22T11:19:52.056Z,1.50
2022-12-22T11:22:39.367Z,1.35
2022-12-22T11:25:39.923Z,1.35
2022-12-22T11:28:32.361Z,1.40
2022-12-22T11:31:21.173Z,1.40
2022-12-22T11:34:20.651Z,1.33
2022-12-22T11:37:14.442Z,1.33
2022-12-22T11:39:59.652Z,1.98
2022-12-22T11:42:51.573Z,1.33
2022-12-22T11:45:44.711Z,1.30
2022-12-22T11:48:46.463Z,1.45
2022-12-22T11:51:34.237Z,1.25
2022-12-22T11:54:45.168Z,1.30
2022-12-22T11:57:32.266Z,1.50
2022-12-22T12:00:14.390Z,1.38
2022-12-22T12:03:37.599Z,1.30
2022-12-22T12:06:33.015Z,1.67
2022-12-22T12:09:23.180Z,1.60
2022-12-22T12:12:06.127Z,1.00
2022-12-22T12:14:51.374Z,0.90
2022-12-22T12:17:37.485Z,1.30
2022-12-22T12:20:40.192Z,1.50
2022-12-22T12:23:54.628Z,1.50
2022-12-22T12:26:35.878Z,1.42
2022-12-22T12:29:21.399Z,1.30
2022-12-22T12:32:04.172Z,1.48
2022-12-22T12:34:44.241Z,1.50
2022-12-22T12:37:26.842Z,1.30
2022-12-22T12:40:24.293Z,1.58
2022-12-22T12:43:01.651Z,1.38
2022-12-22T12:45:43.039Z,1.40
2022-12-22T12:48:45.185Z,1.30
2022-12-22T12:51:51.171Z,1.70
2022-12-22T12:54:50.502Z,1.30
2022-12-22T12:57:33.564Z,1.38
2022-12-22T13:00:10.257Z,1.38
2022-12-22T13:03:00.940Z,1.42
2022-12-22T13:05:40.108Z,1.30
2022-12-22T13:08:24.422Z,1.77
2022-12-22T13:12:11.253Z,1.23
2022-12-22T13:15:03.336Z,1.40
2022-12-22T13:17:45.300Z,1.20
2022-12-22T13:20:24.233Z,1.48
2022-12-22T13:23:01.664Z,1.50
2022-12-22T13:25:47.008Z,1.20
2022-12-22T13:28:25.791Z,1.38
2022-12-22T13:31:08.805Z,1.48
2022-12-22T13:33:53.587Z,1.40
2022-12-22T13:36:43.825Z,1.50
2022-12-22T13:39:21.504Z,1.40
2022-12-22T13:41:57.570Z,1.40
2022-12-22T13:44:36.561Z,1.45
2022-12-22T13:47:19.465Z,1.40
2022-12-22T13:50:10.841Z,1.20
2022-12-22T13:52:47.071Z,1.42
2022-12-22T13:55:29.504Z,1.50
2022-12-22T13:58:11.783Z,1.30
2022-12-22T14:00:48.410Z,1.42
2022-12-22T14:03:59.535Z,1.13
2022-12-22T14:06:34.233Z,1.77
2022-12-22T14:09:21.767Z,1.38
2022-12-22T14:12:01.904Z,1.40
2022-12-22T14:14:42.409Z,1.33
2022-12-22T14:17:26.835Z,1.60
2022-12-22T14:20:06.196Z,1.67
2022-12-22T14:22:44.970Z,1.63
2022-12-22T14:25:24.315Z,1.60
2022-12-22T14:28:01.753Z,1.55
2022-12-22T14:30:41.172Z,1.50
2022-12-22T14:33:35.234Z,1.40
2022-12-22T14:36:22.573Z,1.55
2022-12-22T14:39:03.742Z,1.40
2022-12-22T14:41:53.402Z,1.50
2022-12-22T14:44:32.525Z,1.63
2022-12-22T14:47:21.763Z,1.80
2022-12-22T14:50:00.203Z,1.48
2022-12-22T14:52:42.935Z,1.83
2022-12-22T14:55:32.583Z,1.65
2022-12-22T14:58:15.386Z,1.50
2022-12-22T15:01:11.751Z,1.40
2022-12-22T15:03:48.545Z,1.60
2022-12-22T15:06:42.206Z,1.40
2022-12-22T15:10:13.850Z,1.42
2022-12-22T15:12:31.916Z,1.38
2022-12-22T15:15:08.485Z,1.35
2022-12-22T15:17:44.717Z,1.48
2022-12-22T15:20:23.694Z,1.50
2022-12-22T15:22:59.280Z,1.40
2022-12-22T15:25:37.207Z,1.30
2022-12-22T15:28:14.247Z,1.35
2022-12-22T15:30:49.738Z,1.75
2022-12-22T15:33:25.565Z,1.45
2022-12-22T15:36:03.049Z,1.55
2022-12-22T15:38:40.108Z,1.40
2022-12-22T15:41:20.023Z,1.80
2022-12-22T15:43:58.249Z,1.75
2022-12-22T15:46:35.614Z,1.42
2022-12-22T15:49:16.497Z,1.55
2022-12-22T15:51:55.523Z,1.75
2022-12-22T15:54:34.751Z,1.60
2022-12-22T15:57:15.726Z,1.70
2022-12-22T15:59:52.341Z,1.52
2022-12-22T16:02:28.172Z,1.75
2022-12-22T16:05:04.181Z,1.75
2022-12-22T16:07:40.864Z,1.52
2022-12-22T16:10:29.055Z,1.50
2022-12-22T16:13:07.883Z,2.10
2022-12-22T16:15:44.522Z,1.75
2022-12-22T16:18:20.559Z,1.77
2022-12-22T16:20:57.267Z,1.80
2022-12-22T16:23:33.276Z,1.67
2022-12-22T16:26:10.412Z,1.83
2022-12-22T16:28:48.406Z,1.65
2022-12-22T16:31:27.927Z,1.60
2022-12-22T16:34:03.491Z,1.80
2022-12-22T16:36:39.107Z,1.70
2022-12-22T16:39:15.093Z,1.75
2022-12-22T16:42:00.136Z,1.50
2022-12-22T16:44:37.915Z,1.60
2022-12-22T16:47:21.185Z,1.83
2022-12-22T16:49:57.607Z,1.70
2022-12-22T16:52:42.696Z,1.90
2022-12-22T16:55:21.129Z,2.00
2022-12-22T16:57:56.726Z,1.90
2022-12-22T17:00:37.645Z,1.60
2022-12-22T17:03:19.860Z,1.83
2022-12-22T17:05:57.440Z,1.75
2022-12-22T17:08:34.823Z,1.88
2022-12-22T17:11:14.082Z,1.80
2022-12-22T17:13:50.312Z,1.80
2022-12-22T17:16:28.283Z,1.98
2022-12-22T17:19:04.422Z,1.83
2022-12-22T17:21:40.676Z,2.08
2022-12-22T17:24:27.544Z,1.88
2022-12-22T17:27:07.823Z,2.05
2022-12-22T17:29:43.817Z,2.10
2022-12-22T17:32:27.980Z,2.30
2022-12-22T17:35:04.703Z,2.00
2022-12-22T17:37:40.320Z,2.10
2022-12-22T17:40:23.312Z,2.20
2022-12-22T17:42:59.997Z,2.00
2022-12-22T17:45:39.337Z,2.20
2022-12-22T17:48:18.226Z,2.08
2022-12-22T17:50:54.696Z,1.77
2022-12-22T17:53:32.221Z,2.50
2022-12-22T17:56:11.445Z,2.20
2022-12-22T17:58:47.229Z,1.80
2022-12-22T18:01:27.910Z,1.80
2022-12-22T18:04:06.309Z,1.98
2022-12-22T18:06:45.364Z,2.10
2022-12-22T18:09:26.637Z,2.10
2022-12-22T18:12:02.185Z,2.20
2022-12-22T18:14:38.393Z,1.90
2022-12-22T18:17:33.182Z,2.10
2022-12-22T18:20:17.198Z,2.00
2022-12-22T18:22:55.876Z,2.00
2022-12-22T18:25:33.214Z,2.10
2022-12-22T18:28:11.109Z,1.85
2022-12-22T18:30:46.759Z,1.90
2022-12-22T18:33:22.405Z,2.05
2022-12-22T18:36:02.543Z,2.10
2022-12-22T18:38:39.963Z,1.80
2022-12-22T18:41:16.364Z,2.05
2022-12-22T18:43:52.008Z,1.80
2022-12-22T18:46:28.735Z,1.83
2022-12-22T18:49:06.039Z,1.75
2022-12-22T18:51:43.628Z,2.00
2022-12-22T18:54:35.014Z,1.90
2022-12-22T18:57:16.623Z,1.85
2022-12-22T18:59:52.691Z,2.00
2022-12-22T19:02:30.672Z,2.10
2022-12-22T19:05:07.034Z,1.98
2022-12-22T19:07:45.336Z,2.65
2022-12-22T19:10:23.503Z,2.10
2022-12-22T19:13:01.295Z,2.17
2022-12-22T19:15:40.186Z,2.05
2022-12-22T19:18:26.593Z,2.10
2022-12-22T19:21:03.173Z,2.40
2022-12-22T19:23:40.630Z,2.30
2022-12-22T19:26:25.453Z,2.30
2022-12-22T19:29:03.771Z,2.15
2022-12-22T19:31:41.572Z,2.10
2022-12-22T19:34:23.101Z,2.40
2022-12-22T19:36:58.712Z,2.30
2022-12-22T19:39:36.900Z,2.42
2022-12-22T19:42:18.187Z,2.20
2022-12-22T19:44:54.002Z,2.40
2022-12-22T19:47:31.408Z,2.10
2022-12-22T19:50:07.556Z,2.78
2022-12-22T19:52:43.974Z,2.70
2022-12-22T19:55:21.522Z,3.10
2022-12-22T19:57:58.364Z,3.08
2022-12-22T20:00:34.685Z,3.17
2022-12-22T20:03:14.169Z,3.00
2022-12-22T20:05:49.808Z,3.60
2022-12-22T20:08:25.127Z,3.20
2022-12-22T20:11:04.357Z,3.20
2022-12-22T20:13:41.008Z,3.70
2022-12-22T20:16:19.461Z,3.92
2022-12-22T20:18:55.180Z,3.88
2022-12-22T20:21:33.239Z,3.38
2022-12-22T20:24:11.208Z,3.70
2022-12-22T20:26:53.760Z,3.97
2022-12-22T20:29:31.186Z,3.72
2022-12-22T20:32:06.988Z,3.90
2022-12-22T20:34:43.371Z,3.53
2022-12-22T20:37:23.593Z,3.65
2022-12-22T20:39:59.084Z,4.05
2022-12-22T20:42:37.153Z,4.00
2022-12-22T20:45:13.980Z,4.20
2022-12-22T20:47:49.853Z,3.58
2022-12-22T20:50:28.242Z,4.20
2022-12-22T20:53:04.617Z,3.85
2022-12-22T20:55:46.789Z,4.07
2022-12-22T20:58:29.317Z,3.97
2022-12-22T21:01:06.697Z,3.90
2022-12-22T21:03:43.545Z,4.05
2022-12-22T21:06:31.701Z,4.10
2022-12-22T21:09:07.766Z,3.80
2022-12-22T21:11:43.131Z,4.25
2022-12-22T21:14:22.438Z,4.20
2022-12-22T21:16:58.821Z,4.20
2022-12-22T21:19:34.482Z,4.05
2022-12-22T21:22:09.581Z,4.47
2022-12-22T21:24:45.747Z,4.13
2022-12-22T21:27:24.667Z,4.45
2022-12-22T21:30:02.682Z,5.30
2022-12-22T21:32:38.909Z,4.95
2022-12-22T21:35:18.560Z,5.45
2022-12-22T21:37:56.451Z,5.30
2022-12-22T21:40:33.413Z,5.35
2022-12-22T21:43:08.691Z,4.93
2022-12-22T21:45:47.566Z,4.55
2022-12-22T21:48:30.726Z,5.03
2022-12-22T21:51:06.292Z,4.90
2022-12-22T21:53:41.900Z,4.93
2022-12-22T21:56:23.514Z,4.88
2022-12-22T21:59:03.915Z,4.30
2022-12-22T22:01:42.945Z,3.95
2022-12-22T22:04:20.168Z,3.70
2022-12-22T22:06:56.460Z,4.15
2022-12-22T22:09:32.240Z,3.65
2022-12-22T22:12:28.225Z,3.58
2022-12-22T22:15:04.793Z,3.70
2022-12-22T22:17:42.879Z,4.00
2022-12-22T22:20:27.268Z,4.03
2022-12-22T22:23:03.325Z,4.10
2022-12-22T22:25:39.073Z,4.10
2022-12-22T22:28:28.738Z,4.30
2022-12-22T22:31:04.977Z,4.30
2022-12-22T22:33:42.960Z,4.63
2022-12-22T22:36:25.115Z,4.10
2022-12-22T22:39:01.074Z,3.85
2022-12-22T22:41:42.889Z,4.28
2022-12-22T22:44:22.193Z,4.05
2022-12-22T22:46:58.008Z,4.00
2022-12-22T22:49:36.083Z,4.32
2022-12-22T22:52:12.869Z,4.00
2022-12-22T22:54:51.959Z,4.13
2022-12-22T22:57:27.773Z,3.70
2022-12-22T23:00:04.142Z,4.20
2022-12-22T23:02:40.007Z,4.38
2022-12-22T23:05:22.722Z,4.10
2022-12-22T23:07:59.431Z,4.15
2022-12-22T23:10:41.338Z,4.30
2022-12-22T23:13:17.960Z,4.00
2022-12-22T23:16:00.234Z,4.07
2022-12-22T23:18:36.380Z,4.30
2022-12-22T23:21:16.018Z,3.78
2022-12-22T23:23:52.854Z,4.70
2022-12-22T23:26:29.199Z,4.75
2022-12-22T23:29:04.784Z,4.32
2022-12-22T23:31:41.348Z,4.90
2022-12-22T23:34:17.825Z,4.80
2022-12-22T23:36:55.214Z,4.53
2022-12-22T23:39:31.359Z,4.80
2022-12-22T23:42:07.347Z,5.10
2022-12-22T23:44:43.536Z,5.05
2022-12-22T23:47:19.007Z,5.07
2022-12-22T23:49:54.555Z,4.75
2022-12-22T23:52:32.275Z,5.28
2022-12-22T23:55:09.414Z,4.45
2022-12-22T23:57:44.890Z,4.50
